KMDW

Chicago Midway International Airport

Chicago, Illinois, USA
METAR KMDW 250053Z 11008KT 10SM SCT250 26/12 A3003 RMK AO2 SLP160 T02610117
Observed Flight Rules
May-25 @ 00:53 UTC (25 minutes ago) Visual Flight Rules
Wind Visibility Clouds
110° at 8 knots 10 miles
  • Scattered at 25,000' AGL
Temperatures Readings
Current 26°C / 79°F
Dewpoint 12°C / 54°F
Humidity 42%
Altimeter 30.03" Hg
Pressure 1016 hPa
Elevation 188
METAR KMDW 250053Z 11008KT 10SM SCT250 26/12 A3003 RMK AO2 SLP160 T02610117
Observed Flight Rules
May-25 @ 00:53 UTC
(25 minutes ago)
VFR
Wind Visibility
110° at 8 knots 10 miles
Clouds
  • Scattered at 25,000' AGL
Temperature Dewpoint
26°C / 79°F 12°C / 54°F
Humidity Altimeter Pressure
42% 30.03" Hg 1016 hPa